Time;durP1;ratioP1;P1;durP2;ratioP2;P2;SDS_P1;SDS_P2;PMS_P1;PMS_P2;Temp;Humidity;BMP_temperature;BMP_pressure;BME280_temperature;BME280_humidity;BME280_pressure;Samples;Min_cycle;Max_cycle;Signal;HPM_P1;HPM_P2
2023/05/21 00:02:03;;;;;;;7.80;2.33;;;13.40;1.00;;;;;;5092954;28;20264;-58
2023/05/21 00:04:30;;;;;;;3.92;1.90;;;14.90;1.00;;;;;;5092834;28;20659;-58
2023/05/21 00:06:57;;;;;;;5.55;2.20;;;13.30;23.00;;;;;;5092744;28;20176;-58
2023/05/21 00:09:23;;;;;;;6.60;2.50;;;13.20;1.00;;;;;;5092641;28;20182;-58
2023/05/21 00:11:49;;;;;;;7.10;2.22;;;13.10;1.00;;;;;;5092661;28;20629;-58
2023/05/21 00:14:15;;;;;;;10.57;3.03;;;;;;;;;;5092683;28;20164;-58
2023/05/21 00:16:40;;;;;;;4.35;1.98;;;13.00;99.90;;;;;;5092515;28;20762;-58
2023/05/21 00:19:06;;;;;;;6.57;2.20;;;13.00;99.90;;;;;;5092446;28;20206;-58
2023/05/21 00:21:32;;;;;;;6.03;2.08;;;13.00;1.00;;;;;;5092840;28;20283;-58
2023/05/21 00:23:58;;;;;;;7.28;2.15;;;13.00;1.00;;;;;;5092399;28;20685;-58
2023/05/21 00:26:25;;;;;;;6.05;2.38;;;;;;;;;;5092489;28;20163;-58
2023/05/21 00:28:50;;;;;;;8.80;2.15;;;12.60;1.00;;;;;;5092292;28;20251;-58
2023/05/21 00:31:16;;;;;;;7.30;2.50;;;12.70;99.90;;;;;;5092211;28;20218;-59
2023/05/21 00:33:42;;;;;;;7.10;2.90;;;12.80;99.90;;;;;;5092198;28;20565;-58
2023/05/21 00:36:08;;;;;;;8.52;2.85;;;;;;;;;;5092188;28;20686;-59
2023/05/21 00:38:34;;;;;;;5.10;2.22;;;12.50;1.00;;;;;;5092172;28;20168;-58
2023/05/21 00:41:01;;;;;;;9.50;2.80;;;12.50;1.00;;;;;;5092010;28;20436;-57
2023/05/21 00:43:26;;;;;;;10.45;3.17;;;12.60;1.00;;;;;;5092016;28;20243;-57
2023/05/21 00:45:52;;;;;;;5.63;2.42;;;12.50;1.00;;;;;;5092065;28;20266;-57
2023/05/21 00:48:19;;;;;;;8.57;2.60;;;12.40;1.00;;;;;;5092005;28;20541;-57
2023/05/21 00:50:45;;;;;;;5.05;2.42;;;12.40;1.00;;;;;;5092155;28;20163;-58
2023/05/21 00:53:14;;;;;;;5.75;2.83;;;12.40;1.00;;;;;;5092125;28;20176;-58
2023/05/21 00:55:39;;;;;;;8.17;2.73;;;12.30;1.00;;;;;;5091473;28;20191;-58
2023/05/21 00:58:06;;;;;;;6.70;2.70;;;12.40;1.00;;;;;;5091834;28;20191;-58
2023/05/21 01:00:39;;;;;;;7.20;2.80;;;12.40;16.20;;;;;;5091838;28;20160;-58
2023/05/21 01:03:05;;;;;;;4.95;2.53;;;12.20;99.90;;;;;;5092006;28;20179;-58
2023/05/21 01:05:31;;;;;;;7.30;2.40;;;12.20;1.00;;;;;;5091747;28;20510;-58
2023/05/21 01:07:57;;;;;;;5.40;2.40;;;12.10;99.90;;;;;;5091897;28;20225;-58
2023/05/21 01:10:24;;;;;;;5.27;2.30;;;12.00;99.90;;;;;;5091686;28;20183;-58
2023/05/21 01:12:51;;;;;;;3.27;2.07;;;11.80;99.90;;;;;;5091619;28;20176;-58
2023/05/21 01:15:17;;;;;;;4.25;2.20;;;12.00;99.90;;;;;;5091472;28;20538;-58
2023/05/21 01:17:47;;;;;;;5.20;1.90;;;12.00;5.00;;;;;;5091411;28;20180;-58
2023/05/21 01:20:16;;;;;;;7.63;2.20;;;12.10;1.00;;;;;;5091384;28;20233;-58
2023/05/21 01:22:53;;;;;;;6.87;2.33;;;14.50;1.00;;;;;;5091426;28;20175;-58
2023/05/21 01:25:19;;;;;;;8.97;2.30;;;12.00;37.10;;;;;;5091413;28;20236;-58
2023/05/21 01:27:45;;;;;;;3.33;1.90;;;11.90;99.90;;;;;;5091280;28;20176;-58
2023/05/21 01:30:12;;;;;;;6.13;2.13;;;11.60;1.00;;;;;;5078370;28;20171;-58
2023/05/21 01:32:45;;;;;;;6.27;2.53;;;11.90;1.00;;;;;;5091330;28;20176;-58
2023/05/21 01:35:19;;;;;;;5.53;1.90;;;11.50;1.00;;;;;;5091370;28;20180;-58
2023/05/21 01:38:18;;;;;;;8.13;2.80;;;11.40;1.00;;;;;;5091214;28;20219;-57
2023/05/21 01:40:57;;;;;;;8.30;2.00;;;11.20;99.90;;;;;;5090822;28;20228;-58
2023/05/21 01:43:24;;;;;;;6.93;2.10;;;11.30;99.90;;;;;;5091092;28;20643;-58
2023/05/21 01:45:54;;;;;;;9.83;2.33;;;11.20;99.90;;;;;;5091082;28;20243;-58
2023/05/21 01:48:20;;;;;;;8.43;2.30;;;11.20;99.90;;;;;;5091087;28;20174;-58
2023/05/21 01:50:47;;;;;;;7.13;2.33;;;10.80;99.90;;;;;;5090936;28;20168;-58
2023/05/21 01:53:13;;;;;;;5.17;2.20;;;11.00;99.90;;;;;;5091175;28;20182;-58
2023/05/21 01:55:40;;;;;;;11.57;2.40;;;;;;;;;;5090774;28;20195;-58
2023/05/21 01:58:07;;;;;;;7.00;2.40;;;11.00;99.90;;;;;;5091023;28;20172;-58
2023/05/21 02:00:33;;;;;;;5.60;2.30;;;11.30;13.00;;;;;;5091105;28;20179;-58
2023/05/21 02:02:59;;;;;;;5.83;2.50;;;11.40;1.00;;;;;;5090942;28;20545;-57
2023/05/21 02:05:25;;;;;;;6.47;2.67;;;11.20;1.00;;;;;;5090921;28;20176;-59
2023/05/21 02:07:51;;;;;;;7.33;2.53;;;;;;;;;;5091455;28;20179;-58
2023/05/21 02:10:17;;;;;;;4.77;2.20;;;10.90;99.90;;;;;;5095272;28;20172;-59
2023/05/21 02:12:43;;;;;;;9.23;2.73;;;10.80;99.90;;;;;;5095029;28;20624;-59
2023/05/21 02:15:09;;;;;;;6.60;2.53;;;11.20;99.90;;;;;;5094984;28;20239;-59
2023/05/21 02:17:37;;;;;;;6.50;2.37;;;11.00;99.90;;;;;;5079798;28;20231;-59
2023/05/21 02:20:12;;;;;;;9.83;2.67;;;10.50;99.90;;;;;;5074752;28;20176;-60
2023/05/21 02:22:43;;;;;;;6.77;2.73;;;10.60;99.90;;;;;;5074739;28;20176;-58
2023/05/21 02:25:10;;;;;;;8.00;2.60;;;10.60;99.90;;;;;;5074725;28;20176;-58
2023/05/21 02:27:37;;;;;;;6.63;2.50;;;10.60;99.90;;;;;;5074611;28;20223;-58
2023/05/21 02:30:04;;;;;;;6.57;2.37;;;10.10;99.90;;;;;;5089469;28;20183;-58
2023/05/21 02:32:31;;;;;;;6.07;2.50;;;10.90;99.90;;;;;;5094794;28;20171;-58
2023/05/21 02:34:57;;;;;;;10.67;2.80;;;10.50;99.90;;;;;;5094791;28;20208;-58
2023/05/21 02:37:26;;;;;;;5.40;2.33;;;11.00;99.90;;;;;;5111476;28;20203;-58
2023/05/21 02:39:55;;;;;;;6.10;2.70;;;10.80;99.90;;;;;;5114890;28;20674;-59
2023/05/21 02:42:21;;;;;;;6.33;2.43;;;10.70;99.90;;;;;;5094704;28;20667;-58
2023/05/21 02:44:47;;;;;;;5.73;2.53;;;10.70;99.90;;;;;;5092489;28;20215;-58
2023/05/21 02:47:13;;;;;;;6.60;2.67;;;10.70;99.90;;;;;;5094371;28;20264;-58
2023/05/21 02:49:38;;;;;;;7.93;2.90;;;10.60;99.90;;;;;;5087516;28;20644;-59
2023/05/21 02:52:04;;;;;;;7.53;2.30;;;10.70;99.90;;;;;;5093103;28;20190;-58
2023/05/21 02:54:30;;;;;;;7.20;2.57;;;10.40;99.90;;;;;;5094388;28;20214;-58
2023/05/21 02:56:56;;;;;;;5.20;2.40;;;10.80;99.90;;;;;;5093914;28;20212;-58
2023/05/21 02:59:22;;;;;;;5.53;2.67;;;10.50;99.90;;;;;;5093602;28;20209;-58
2023/05/21 03:01:48;;;;;;;9.00;2.80;;;10.50;99.90;;;;;;5088513;28;20267;-59
2023/05/21 03:04:13;;;;;;;5.23;2.40;;;10.30;99.90;;;;;;5092391;28;20215;-59
2023/05/21 03:06:39;;;;;;;5.03;2.53;;;10.30;99.90;;;;;;5094017;28;20171;-58
2023/05/21 03:09:05;;;;;;;6.57;2.80;;;10.20;99.90;;;;;;5094153;28;20210;-57
2023/05/21 03:11:31;;;;;;;7.67;2.30;;;;;;;;;;5094110;28;20190;-58
2023/05/21 03:13:57;;;;;;;7.03;2.40;;;10.40;99.90;;;;;;5094023;28;20559;-58
2023/05/21 03:16:22;;;;;;;4.83;2.63;;;;;;;;;;5094122;28;20218;-57
2023/05/21 03:18:48;;;;;;;12.20;3.73;;;10.40;99.90;;;;;;5093516;28;20517;-58
2023/05/21 03:21:14;;;;;;;4.60;2.30;;;10.40;99.90;;;;;;5093528;28;20187;-58
2023/05/21 03:23:42;;;;;;;4.40;2.43;;;10.20;99.90;;;;;;5091574;28;20679;-58
2023/05/21 03:26:08;;;;;;;5.50;2.47;;;10.20;99.90;;;;;;5093205;28;20176;-58
2023/05/21 03:28:34;;;;;;;5.93;2.27;;;10.30;99.90;;;;;;5087011;28;20176;-58
2023/05/21 03:31:00;;;;;;;5.97;2.67;;;9.80;99.90;;;;;;5089520;28;20176;-59
2023/05/21 03:33:26;;;;;;;7.17;2.40;;;10.10;99.90;;;;;;5091035;28;20187;-58
2023/05/21 03:35:52;;;;;;;5.80;2.50;;;9.90;99.90;;;;;;5078778;28;20196;-58
2023/05/21 03:38:18;;;;;;;6.73;2.47;;;;;;;;;;5093179;28;20644;-58
2023/05/21 03:40:43;;;;;;;6.17;2.43;;;9.80;99.90;;;;;;5092861;28;20606;-57
2023/05/21 03:43:10;;;;;;;6.53;2.67;;;9.40;99.90;;;;;;5092761;28;20222;-57
2023/05/21 03:45:35;;;;;;;6.37;2.80;;;9.40;99.90;;;;;;5093231;28;20168;-58
2023/05/21 03:48:01;;;;;;;11.20;2.60;;;9.40;99.90;;;;;;5093064;28;20685;-58
2023/05/21 03:50:27;;;;;;;9.57;2.83;;;9.30;99.90;;;;;;5075018;28;20176;-59
2023/05/21 03:52:53;;;;;;;9.53;2.77;;;;;;;;;;5092932;28;20174;-58
2023/05/21 03:55:18;;;;;;;8.17;2.40;;;9.40;99.90;;;;;;5092699;28;20180;-58
2023/05/21 03:57:44;;;;;;;8.43;3.10;;;9.50;99.90;;;;;;5092639;28;20241;-58
2023/05/21 04:00:10;;;;;;;10.87;3.03;;;9.10;99.90;;;;;;5092818;28;20674;-58
2023/05/21 04:02:35;;;;;;;6.33;2.83;;;9.10;99.90;;;;;;5092828;28;20655;-58
2023/05/21 04:05:02;;;;;;;9.53;2.50;;;9.40;99.90;;;;;;5092641;28;20632;-59
2023/05/21 04:07:28;;;;;;;6.20;2.53;;;9.30;99.90;;;;;;5092628;28;20172;-58
2023/05/21 04:09:54;;;;;;;5.60;2.70;;;9.30;99.90;;;;;;5092760;28;20316;-58
2023/05/21 04:12:21;;;;;;;6.60;2.70;;;;;;;;;;5091529;28;20180;-58
2023/05/21 04:14:47;;;;;;;5.73;2.60;;;9.10;99.90;;;;;;5091837;28;20172;-58
2023/05/21 04:17:12;;;;;;;7.73;2.83;;;9.10;99.90;;;;;;5082300;28;20219;-58
2023/05/21 04:19:38;;;;;;;5.73;2.60;;;9.00;99.90;;;;;;5080925;28;20180;-57
2023/05/21 04:22:04;;;;;;;8.30;2.67;;;9.50;99.90;;;;;;5081753;28;20187;-58
2023/05/21 04:24:30;;;;;;;5.60;2.73;;;9.60;99.90;;;;;;5092271;28;20659;-58
2023/05/21 04:26:59;;;;;;;6.20;2.87;;;9.30;99.90;;;;;;5092516;28;20195;-58
2023/05/21 04:29:28;;;;;;;7.03;2.77;;;9.40;99.90;;;;;;5092520;28;20183;-58
2023/05/21 04:31:54;;;;;;;5.17;2.63;;;9.60;99.90;;;;;;5080115;28;20176;-58
2023/05/21 04:34:21;;;;;;;11.27;2.97;;;;;;;;;;5072225;28;20174;-58
2023/05/21 04:36:47;;;;;;;7.87;2.87;;;9.90;99.90;;;;;;5072071;28;20226;-58
2023/05/21 04:39:13;;;;;;;9.97;2.83;;;9.60;99.90;;;;;;5072033;28;20219;-57
2023/05/21 04:41:39;;;;;;;9.50;2.40;;;9.60;99.90;;;;;;5075623;28;20212;-58
2023/05/21 04:44:08;;;;;;;4.97;2.23;;;9.60;99.90;;;;;;5092498;28;20320;-58
2023/05/21 04:46:34;;;;;;;10.10;2.90;;;9.50;99.90;;;;;;5092223;28;20589;-58
2023/05/21 04:49:03;;;;;;;6.80;2.40;;;9.70;99.90;;;;;;5092254;28;20172;-58
2023/05/21 04:51:29;;;;;;;7.60;2.67;;;9.60;99.90;;;;;;5092055;28;20210;-58
2023/05/21 04:53:56;;;;;;;4.27;2.63;;;9.40;99.90;;;;;;5092004;28;20202;-58
2023/05/21 04:56:25;;;;;;;6.93;2.50;;;9.80;99.90;;;;;;5091973;28;20208;-58
2023/05/21 04:58:52;;;;;;;12.13;2.80;;;;;;;;;;5092257;28;20204;-58
2023/05/21 05:01:21;;;;;;;8.40;2.87;;;9.80;99.90;;;;;;5073757;28;20164;-58
2023/05/21 05:03:47;;;;;;;4.77;2.40;;;9.60;99.90;;;;;;5091845;28;20171;-59
2023/05/21 05:06:13;;;;;;;8.90;2.67;;;;;;;;;;5091785;28;20541;-59
2023/05/21 05:08:39;;;;;;;9.87;2.77;;;;;;;;;;5077927;28;20195;-59
2023/05/21 05:11:05;;;;;;;6.73;2.90;;;;;;;;;;5071618;28;20218;-58
2023/05/21 05:13:31;;;;;;;6.83;2.83;;;9.40;99.90;;;;;;5071477;28;20172;-59
2023/05/21 05:15:57;;;;;;;7.63;3.00;;;;;;;;;;5071316;28;20196;-58
2023/05/21 05:18:22;;;;;;;8.17;2.63;;;9.50;99.90;;;;;;5071397;28;20177;-58
2023/05/21 05:20:48;;;;;;;6.77;2.40;;;9.50;99.90;;;;;;5071477;28;20173;-58
2023/05/21 05:23:14;;;;;;;7.17;2.60;;;9.60;99.90;;;;;;5071255;28;20644;-58
2023/05/21 05:25:40;;;;;;;5.80;2.83;;;;;;;;;;5071331;28;20168;-58
2023/05/21 05:28:05;;;;;;;6.53;2.70;;;9.70;99.90;;;;;;5071234;28;20184;-58
2023/05/21 05:30:31;;;;;;;7.50;2.80;;;9.80;99.90;;;;;;5080436;28;20214;-58
2023/05/21 05:32:57;;;;;;;6.63;2.70;;;10.00;99.90;;;;;;5091220;28;20652;-58
2023/05/21 05:35:23;;;;;;;9.43;2.97;;;10.00;99.90;;;;;;5091404;28;20171;-58
2023/05/21 05:37:48;;;;;;;7.67;2.83;;;10.00;99.90;;;;;;5070981;28;20730;-58
2023/05/21 05:40:14;;;;;;;7.93;3.13;;;10.00;99.90;;;;;;5070749;28;20223;-57
2023/05/21 05:42:40;;;;;;;5.33;2.60;;;10.10;99.90;;;;;;5070146;28;20230;-58
2023/05/21 05:45:06;;;;;;;7.23;2.83;;;;;;;;;;5070968;28;20175;-57
2023/05/21 05:47:31;;;;;;;7.87;2.93;;;10.20;99.90;;;;;;5070958;28;20173;-58
2023/05/21 05:49:57;;;;;;;9.83;3.47;;;10.20;99.90;;;;;;5072430;28;20175;-57
2023/05/21 05:52:22;;;;;;;9.57;3.00;;;10.30;99.90;;;;;;5091044;28;20275;-58
2023/05/21 05:54:48;;;;;;;7.67;2.97;;;10.50;99.90;;;;;;5091079;28;20172;-57
2023/05/21 05:57:14;;;;;;;5.13;2.83;;;10.50;99.90;;;;;;5090979;28;20203;-59
2023/05/21 05:59:39;;;;;;;8.83;3.30;;;10.70;99.90;;;;;;5091139;28;20571;-57
2023/05/21 06:02:05;;;;;;;12.63;3.17;;;10.60;99.90;;;;;;5090859;28;20174;-57
2023/05/21 06:04:31;;;;;;;10.27;3.30;;;10.80;99.90;;;;;;5090892;28;20176;-58
2023/05/21 06:06:57;;;;;;;9.63;3.67;;;10.80;99.90;;;;;;5090868;28;20172;-58
2023/05/21 06:09:23;;;;;;;9.97;3.40;;;10.80;55.80;;;;;;5090859;28;20643;-58
2023/05/21 06:11:49;;;;;;;8.90;3.60;;;10.90;30.60;;;;;;5090852;28;20175;-59
2023/05/21 06:14:15;;;;;;;8.67;3.67;;;10.80;1.00;;;;;;5090778;28;20183;-58
2023/05/21 06:16:40;;;;;;;10.80;3.40;;;11.00;1.00;;;;;;5090748;28;20204;-59
2023/05/21 06:19:06;;;;;;;10.43;3.40;;;11.10;1.00;;;;;;5090731;28;20246;-58
2023/05/21 06:21:32;;;;;;;11.57;3.90;;;11.10;1.00;;;;;;5090769;28;20514;-58
2023/05/21 06:23:58;;;;;;;8.73;3.30;;;11.20;1.00;;;;;;5090579;28;20180;-58
2023/05/21 06:26:24;;;;;;;8.63;3.17;;;11.30;99.90;;;;;;5090507;28;20191;-58
2023/05/21 06:28:49;;;;;;;10.20;3.67;;;11.90;1.00;;;;;;5072179;28;20176;-57
2023/05/21 06:31:15;;;;;;;8.83;3.47;;;11.50;1.00;;;;;;5084711;28;20195;-58
2023/05/21 06:33:41;;;;;;;10.53;3.70;;;11.70;1.00;;;;;;5085670;28;20246;-57
2023/05/21 06:36:07;;;;;;;10.93;3.57;;;11.70;99.90;;;;;;5090093;28;20293;-58
2023/05/21 06:38:32;;;;;;;6.27;3.10;;;11.80;61.70;;;;;;5090204;28;20211;-58
2023/05/21 06:40:58;;;;;;;6.60;3.17;;;;;;;;;;5090321;28;20227;-58
2023/05/21 06:43:24;;;;;;;10.47;3.50;;;12.00;1.00;;;;;;5090508;28;20183;-58
2023/05/21 06:45:50;;;;;;;6.23;2.83;;;11.90;1.00;;;;;;5090677;28;20172;-58
2023/05/21 06:48:16;;;;;;;8.30;2.97;;;12.00;1.00;;;;;;5090415;28;20176;-58
2023/05/21 06:50:42;;;;;;;6.67;2.80;;;12.10;55.10;;;;;;5090425;28;20172;-58
2023/05/21 06:53:09;;;;;;;10.13;3.33;;;12.20;1.00;;;;;;5090526;28;20175;-58
2023/05/21 06:55:36;;;;;;;9.83;2.70;;;;;;;;;;5093553;28;20607;-58
2023/05/21 06:58:01;;;;;;;7.13;2.85;;;12.40;99.90;;;;;;5094288;28;20176;-58
2023/05/21 07:00:27;;;;;;;8.50;3.13;;;12.60;99.90;;;;;;5094126;28;20172;-58
2023/05/21 07:02:53;;;;;;;7.87;2.93;;;12.60;1.00;;;;;;5094110;28;20172;-58
2023/05/21 07:05:19;;;;;;;7.70;2.80;;;12.20;1.00;;;;;;5093998;28;20172;-58
2023/05/21 07:07:45;;;;;;;10.33;3.07;;;;;;;;;;5094017;28;20640;-58
2023/05/21 07:10:11;;;;;;;9.18;3.13;;;12.60;1.00;;;;;;5093892;28;20164;-60
2023/05/21 07:12:36;;;;;;;5.57;2.80;;;12.40;1.00;;;;;;5093895;28;20628;-60
2023/05/21 07:15:02;;;;;;;6.77;2.70;;;;;;;;;;5092988;28;20183;-60
2023/05/21 07:17:28;;;;;;;12.80;3.00;;;12.80;1.00;;;;;;5093668;28;20222;-61
2023/05/21 07:19:53;;;;;;;10.23;2.80;;;12.80;1.00;;;;;;5086351;28;20188;-63
2023/05/21 07:22:19;;;;;;;7.70;3.20;;;13.00;1.00;;;;;;5092242;28;20179;-59
2023/05/21 07:24:45;;;;;;;9.77;2.50;;;13.10;99.90;;;;;;5075357;28;20587;-59
2023/05/21 07:27:11;;;;;;;8.50;2.53;;;;;;;;;;5093423;28;20168;-60
2023/05/21 07:29:37;;;;;;;8.82;2.90;;;;;;;;;;5093075;28;20322;-60
2023/05/21 07:32:03;;;;;;;6.43;2.63;;;13.20;99.90;;;;;;5092932;28;20607;-60
2023/05/21 07:34:29;;;;;;;5.50;2.75;;;;;;;;;;5093444;28;20176;-59
2023/05/21 07:36:54;;;;;;;8.25;3.00;;;13.70;1.00;;;;;;5093222;28;20272;-59
2023/05/21 07:39:20;;;;;;;6.82;2.47;;;13.90;64.80;;;;;;5093328;28;20168;-58
2023/05/21 07:41:45;;;;;;;10.98;2.75;;;13.80;1.00;;;;;;5093556;28;20547;-58
2023/05/21 07:44:11;;;;;;;8.68;2.30;;;13.80;99.90;;;;;;5093335;28;20636;-58
2023/05/21 07:46:37;;;;;;;4.28;2.15;;;13.90;1.00;;;;;;5093331;28;20183;-57
2023/05/21 07:49:02;;;;;;;9.40;3.05;;;;;;;;;;5093116;28;20679;-58
2023/05/21 07:51:28;;;;;;;5.88;2.33;;;14.20;99.90;;;;;;5092633;28;20228;-57
2023/05/21 07:53:55;;;;;;;5.43;2.47;;;14.30;99.90;;;;;;5093130;28;20648;-58
2023/05/21 07:56:20;;;;;;;4.28;1.85;;;14.30;1.00;;;;;;5092949;28;20207;-57
2023/05/21 07:58:46;;;;;;;6.10;2.65;;;14.60;1.00;;;;;;5092914;28;20186;-57
2023/05/21 08:01:12;;;;;;;6.30;2.30;;;14.80;99.90;;;;;;5092300;28;20171;-57
2023/05/21 08:03:37;;;;;;;10.07;2.53;;;14.20;1.00;;;;;;5092924;28;20250;-58
2023/05/21 08:06:03;;;;;;;8.63;2.58;;;14.80;1.00;;;;;;5092054;28;20250;-59
2023/05/21 08:08:29;;;;;;;7.88;2.33;;;14.80;1.00;;;;;;5087920;28;20165;-57
2023/05/21 08:10:55;;;;;;;4.45;2.10;;;14.90;1.00;;;;;;5079455;28;20188;-58
2023/05/21 08:13:20;;;;;;;8.02;2.58;;;15.00;99.90;;;;;;5074684;28;20532;-58
2023/05/21 08:15:47;;;;;;;7.93;2.70;;;15.30;1.00;;;;;;5092720;28;20178;-56
2023/05/21 08:18:13;;;;;;;7.95;2.58;;;15.20;99.90;;;;;;5092511;28;20221;-57
2023/05/21 08:20:38;;;;;;;6.25;2.55;;;15.40;99.90;;;;;;5092518;28;20176;-57
2023/05/21 08:23:04;;;;;;;7.10;2.58;;;15.50;99.90;;;;;;5092613;28;20225;-57
2023/05/21 08:25:30;;;;;;;7.85;2.45;;;15.70;26.20;;;;;;5090926;28;20210;-57
2023/05/21 08:27:56;;;;;;;6.05;2.72;;;15.90;1.00;;;;;;5092527;28;20176;-57
2023/05/21 08:30:22;;;;;;;6.70;2.70;;;16.20;1.00;;;;;;5091947;28;20172;-57
2023/05/21 08:32:48;;;;;;;10.32;2.83;;;16.40;1.00;;;;;;5091793;28;20659;-57
2023/05/21 08:35:14;;;;;;;6.57;2.70;;;16.60;1.00;;;;;;5092017;28;20223;-57
2023/05/21 08:37:40;;;;;;;5.20;2.60;;;17.00;99.90;;;;;;5092259;28;20246;-56
2023/05/21 08:40:06;;;;;;;10.07;2.70;;;17.60;99.90;;;;;;5091754;28;20683;-56
2023/05/21 08:42:47;;;;;;;7.70;2.20;;;18.90;99.90;;;;;;5091490;28;20172;-57
2023/05/21 08:45:18;;;;;;;6.20;2.60;;;18.80;99.90;;;;;;5085850;28;20176;-57
2023/05/21 08:47:45;;;;;;;5.65;2.90;;;20.00;1.00;;;;;;5091959;28;20222;-57
2023/05/21 08:50:17;;;;;;;5.15;2.22;;;20.20;99.90;;;;;;5091487;28;20229;-58
2023/05/21 08:52:42;;;;;;;4.70;2.28;;;20.30;1.00;;;;;;5091677;28;20263;-57
2023/05/21 08:55:09;;;;;;;6.75;2.50;;;19.90;99.90;;;;;;5091190;28;20199;-57
2023/05/21 08:57:35;;;;;;;4.78;2.40;;;20.00;99.90;;;;;;5091235;28;20216;-58
2023/05/21 09:00:03;;;;;;;8.18;2.20;;;20.10;99.90;;;;;;5091639;28;20191;-57
2023/05/21 09:02:32;;;;;;;8.48;2.53;;;20.10;1.00;;;;;;5091491;28;20175;-57
2023/05/21 09:05:02;;;;;;;5.90;2.70;;;;;;;;;;5091196;28;20221;-57
2023/05/21 09:07:30;;;;;;;5.95;2.35;;;20.10;1.00;;;;;;5090851;28;20267;-57
2023/05/21 09:10:17;;;;;;;5.10;2.40;;;20.10;1.00;;;;;;5073218;28;20172;-57
2023/05/21 09:12:43;;;;;;;7.47;2.70;;;20.30;1.00;;;;;;5091367;28;20308;-57
2023/05/21 09:15:09;;;;;;;4.68;2.22;;;19.90;9.50;;;;;;5073313;28;20160;-57
2023/05/21 09:17:35;;;;;;;10.50;2.22;;;20.00;99.90;;;;;;5090648;28;20582;-58
2023/05/21 09:20:25;;;;;;;12.20;2.95;;;20.50;1.00;;;;;;5091923;28;20175;-57
2023/05/21 09:22:51;;;;;;;7.63;2.78;;;20.10;1.00;;;;;;5078995;28;20733;-57
2023/05/21 09:25:24;;;;;;;8.48;2.75;;;20.70;62.50;;;;;;5073093;28;20163;-57
2023/05/21 09:27:50;;;;;;;7.47;2.92;;;20.50;1.00;;;;;;5091091;28;20164;-57
2023/05/21 09:30:18;;;;;;;5.25;2.50;;;20.50;1.00;;;;;;5091199;28;20175;-57
2023/05/21 09:32:44;;;;;;;8.88;2.63;;;20.80;1.00;;;;;;5091054;28;20638;-57
2023/05/21 09:35:12;;;;;;;7.22;2.78;;;21.00;1.00;;;;;;5091095;28;20206;-57
2023/05/21 09:37:47;;;;;;;7.32;2.47;;;21.00;99.90;;;;;;5090910;28;20203;-57
2023/05/21 09:40:14;;;;;;;7.32;2.67;;;20.80;99.90;;;;;;5070915;28;20330;-58
2023/05/21 09:42:58;;;;;;;6.05;2.30;;;21.40;1.00;;;;;;5089529;28;20271;-57
2023/05/21 09:45:25;;;;;;;3.53;2.20;;;21.20;1.00;;;;;;5090907;28;20259;-57
2023/05/21 09:47:53;;;;;;;6.38;2.63;;;21.30;99.90;;;;;;5090497;28;20180;-57
2023/05/21 09:50:21;;;;;;;7.32;2.50;;;21.40;1.00;;;;;;5090341;28;20175;-57
2023/05/21 09:52:49;;;;;;;9.30;2.85;;;21.70;99.90;;;;;;5090291;28;20176;-58
2023/05/21 09:55:15;;;;;;;17.85;2.90;;;21.90;1.00;;;;;;5091018;28;20321;-57
2023/05/21 09:57:43;;;;;;;9.57;2.50;;;22.00;1.00;;;;;;5090895;28;20204;-57
2023/05/21 10:00:23;;;;;;;9.23;3.05;;;22.10;99.90;;;;;;5090809;28;20167;-57
2023/05/21 10:02:53;;;;;;;6.50;2.55;;;22.30;99.90;;;;;;5090429;28;20724;-57
2023/05/21 10:05:19;;;;;;;6.88;2.45;;;22.00;1.00;;;;;;5090825;28;20285;-57
2023/05/21 10:07:55;;;;;;;5.07;2.60;;;22.30;99.90;;;;;;5090048;28;20168;-58
2023/05/21 10:10:21;;;;;;;9.30;2.53;;;22.40;99.90;;;;;;5089791;28;20292;-57
2023/05/21 10:12:53;;;;;;;6.15;2.50;;;22.10;1.00;;;;;;5086334;28;20550;-58
2023/05/21 10:15:23;;;;;;;5.28;2.25;;;22.10;1.00;;;;;;5083838;28;20192;-58
2023/05/21 10:17:48;;;;;;;8.70;2.88;;;22.90;1.00;;;;;;5066885;28;20219;-57
2023/05/21 10:20:16;;;;;;;8.85;2.45;;;22.50;41.80;;;;;;5070512;28;20736;-58
2023/05/21 10:22:43;;;;;;;6.38;2.38;;;22.60;1.00;;;;;;5070390;28;20252;-57
2023/05/21 10:25:09;;;;;;;5.78;2.30;;;22.80;1.00;;;;;;5070263;28;20173;-58
2023/05/21 10:27:36;;;;;;;5.05;2.33;;;22.50;1.00;;;;;;5072249;28;20203;-57
2023/05/21 10:30:04;;;;;;;5.72;2.60;;;22.70;1.00;;;;;;5092957;28;20171;-57
2023/05/21 10:32:30;;;;;;;6.72;2.88;;;22.70;1.00;;;;;;5094377;28;20199;-57
2023/05/21 10:34:57;;;;;;;6.05;2.50;;;22.40;1.00;;;;;;5094564;28;20256;-57
2023/05/21 10:37:25;;;;;;;6.75;2.88;;;22.60;99.90;;;;;;5093714;28;20203;-57
2023/05/21 10:39:51;;;;;;;7.22;2.80;;;23.40;99.90;;;;;;5093575;28;20219;-57
2023/05/21 10:42:22;;;;;;;8.98;2.55;;;23.30;1.00;;;;;;5094260;28;20171;-57
2023/05/21 10:45:06;;;;;;;8.48;2.65;;;23.50;1.00;;;;;;5094366;28;20164;-57
2023/05/21 10:48:00;;;;;;;4.88;2.53;;;24.00;1.00;;;;;;5093881;28;20232;-57
2023/05/21 10:50:44;;;;;;;7.57;2.30;;;24.00;1.00;;;;;;5094122;28;20172;-57
2023/05/21 10:53:22;;;;;;;8.88;2.25;;;24.70;99.90;;;;;;5093868;28;20172;-57
2023/05/21 10:55:57;;;;;;;7.70;2.70;;;24.50;1.00;;;;;;5094099;28;20174;-61
2023/05/21 10:58:31;;;;;;;4.30;2.28;;;24.30;1.00;;;;;;5093917;28;20183;-60
2023/05/21 11:00:58;;;;;;;5.93;2.60;;;24.80;1.00;;;;;;5094122;28;20188;-60
2023/05/21 11:03:25;;;;;;;7.55;2.42;;;24.80;1.00;;;;;;5094099;28;20172;-60
2023/05/21 11:05:53;;;;;;;6.60;2.65;;;24.10;1.00;;;;;;5093854;28;20260;-57
2023/05/21 11:08:25;;;;;;;6.07;2.55;;;24.20;99.90;;;;;;5093789;28;20192;-59
2023/05/21 11:10:56;;;;;;;8.07;2.83;;;24.30;1.00;;;;;;5093789;28;20257;-58
2023/05/21 11:13:23;;;;;;;6.47;2.67;;;24.40;1.00;;;;;;5075575;28;20201;-58
2023/05/21 11:15:58;;;;;;;9.15;2.80;;;24.60;1.00;;;;;;5093603;28;20259;-58
2023/05/21 11:18:32;;;;;;;5.75;2.80;;;24.70;95.10;;;;;;5092387;28;20746;-59
2023/05/21 11:21:15;;;;;;;7.35;2.58;;;24.10;1.00;;;;;;5093895;28;20175;-58
2023/05/21 11:23:50;;;;;;;5.53;2.70;;;24.60;1.00;;;;;;5093371;28;20195;-58
2023/05/21 11:26:21;;;;;;;4.75;2.60;;;24.30;1.00;;;;;;5093546;28;20558;-58
2023/05/21 11:29:02;;;;;;;6.93;2.90;;;24.40;1.00;;;;;;5092974;28;20164;-58
2023/05/21 11:31:33;;;;;;;6.55;2.78;;;;;;;;;;5075280;28;20203;-58
2023/05/21 11:34:08;;;;;;;6.35;2.35;;;;;;;;;;5075160;28;20195;-58
2023/05/21 11:36:36;;;;;;;6.00;2.80;;;26.20;1.00;;;;;;5093512;28;20210;-58
2023/05/21 11:39:20;;;;;;;5.00;2.40;;;26.70;1.00;;;;;;5093227;28;20172;-58
2023/05/21 11:42:02;;;;;;;9.48;2.60;;;26.80;1.00;;;;;;5091769;28;20249;-59
2023/05/21 11:44:43;;;;;;;6.20;2.67;;;26.60;99.90;;;;;;5093121;28;20229;-59
2023/05/21 11:47:19;;;;;;;5.40;2.53;;;26.10;1.00;;;;;;5093040;28;20168;-58
2023/05/21 11:49:45;;;;;;;4.60;2.75;;;26.30;99.90;;;;;;5092350;28;20179;-58
2023/05/21 11:52:11;;;;;;;7.28;3.28;;;26.80;1.00;;;;;;5087205;28;20267;-58
2023/05/21 11:54:45;;;;;;;8.63;2.95;;;27.20;1.00;;;;;;5072790;28;20616;-58
2023/05/21 11:57:14;;;;;;;7.38;2.80;;;27.70;99.90;;;;;;5072808;28;20257;-59
2023/05/21 11:59:40;;;;;;;8.57;2.75;;;27.10;99.90;;;;;;5088698;28;20168;-59
2023/05/21 12:02:06;;;;;;;6.13;2.60;;;27.40;99.90;;;;;;5092456;28;20264;-59
2023/05/21 12:04:36;;;;;;;5.72;2.45;;;27.20;1.00;;;;;;5092907;28;20168;-59
2023/05/21 12:07:08;;;;;;;5.03;2.58;;;26.40;1.00;;;;;;5092998;28;20180;-59
2023/05/21 12:09:48;;;;;;;6.32;2.45;;;28.10;1.00;;;;;;5092862;28;20271;-59
2023/05/21 12:12:15;;;;;;;6.28;2.30;;;27.40;1.00;;;;;;5092923;28;20224;-59
2023/05/21 12:14:45;;;;;;;6.30;2.30;;;27.20;99.90;;;;;;5092511;28;20199;-59
2023/05/21 12:17:15;;;;;;;4.72;2.80;;;;;;;;;;5092683;28;20261;-59
2023/05/21 12:19:41;;;;;;;7.72;2.63;;;27.00;99.90;;;;;;5092454;28;20180;-60
2023/05/21 12:22:07;;;;;;;4.05;1.90;;;27.50;99.90;;;;;;5092531;28;20259;-59
2023/05/21 12:24:33;;;;;;;4.82;2.42;;;;;;;;;;5092549;28;20172;-59
2023/05/21 12:27:01;;;;;;;4.88;2.13;;;26.50;99.90;;;;;;5092460;28;20602;-59
2023/05/21 12:29:28;;;;;;;2.58;1.77;;;27.20;99.90;;;;;;5092178;28;20638;-59
2023/05/21 12:31:59;;;;;;;10.75;2.08;;;27.30;99.90;;;;;;5092099;28;20492;-59
2023/05/21 12:34:46;;;;;;;7.93;2.35;;;26.40;1.00;;;;;;5092295;28;20187;-59
2023/05/21 12:37:31;;;;;;;6.22;2.30;;;26.70;99.90;;;;;;5092414;28;20214;-59
2023/05/21 12:40:06;;;;;;;4.25;2.60;;;25.60;1.00;;;;;;5092148;28;20226;-59
2023/05/21 12:42:35;;;;;;;4.95;1.95;;;25.60;99.90;;;;;;5092229;28;20266;-59
2023/05/21 12:45:08;;;;;;;4.82;2.05;;;26.60;1.00;;;;;;5090120;28;20262;-59
2023/05/21 12:47:34;;;;;;;7.47;2.10;;;;;;;;;;5091934;28;20167;-59
2023/05/21 12:50:02;;;;;;;4.93;2.00;;;27.70;1.00;;;;;;5092019;28;20179;-59
2023/05/21 12:52:31;;;;;;;5.40;1.98;;;28.50;1.00;;;;;;5090856;28;20539;-59
2023/05/21 12:54:58;;;;;;;8.38;2.03;;;27.80;1.00;;;;;;5090864;28;20538;-59
2023/05/21 12:57:26;;;;;;;3.75;1.80;;;27.50;1.00;;;;;;5068186;28;20276;-59
2023/05/21 12:59:59;;;;;;;8.40;2.28;;;27.70;99.90;;;;;;5086478;28;20255;-59
2023/05/21 13:02:26;;;;;;;4.68;2.10;;;;;;;;;;5090742;28;20221;-59
2023/05/21 13:04:58;;;;;;;6.82;1.92;;;28.80;1.00;;;;;;5091337;28;20704;-59
2023/05/21 13:07:25;;;;;;;3.85;1.75;;;28.30;1.00;;;;;;5091581;28;20175;-59